Time;durP1;ratioP1;P1;durP2;ratioP2;P2;SDS_P1;SDS_P2;PMS_P1;PMS_P2;Temp;Humidity;BMP_temperature;BMP_pressure;BME280_temperature;BME280_humidity;BME280_pressure;Samples;Min_cycle;Max_cycle;Signal;HPM_P1;HPM_P2
2021/03/27 00:02:01;;;;;;;5.45;1.48;;;;;;;25.78;27.89;96581.94;4999099;28;20378;-25
2021/03/27 00:04:42;;;;;;;3.15;1.50;;;;;;;25.76;27.99;96589.88;5011127;28;20044;-29
2021/03/27 00:07:14;;;;;;;7.95;1.80;;;;;;;25.77;27.97;96582.84;5005471;28;20095;-28
2021/03/27 00:09:41;;;;;;;5.78;1.65;;;;;;;25.77;27.85;96594.19;5037270;28;20037;-26
2021/03/27 00:12:24;;;;;;;4.68;1.75;;;;;;;25.78;28.04;96590.63;5023535;28;20037;-25
2021/03/27 00:15:15;;;;;;;5.57;1.80;;;;;;;25.77;28.00;96591.56;5008529;28;20033;-26
2021/03/27 00:17:48;;;;;;;6.23;1.50;;;;;;;25.77;28.03;96562.72;5008973;28;20041;-29
2021/03/27 00:20:32;;;;;;;5.88;1.33;;;;;;;25.77;27.84;96546.97;5036806;28;20288;-26
2021/03/27 00:23:06;;;;;;;4.25;1.80;;;;;;;25.78;27.85;96551.25;5036680;28;20085;-26
2021/03/27 00:25:40;;;;;;;6.15;1.98;;;;;;;25.78;27.98;96558.31;5035338;28;20409;-24
2021/03/27 00:28:32;;;;;;;6.15;1.70;;;;;;;25.77;27.95;96557.47;5019573;28;20034;-27
2021/03/27 00:31:15;;;;;;;13.80;2.10;;;;;;;25.77;27.84;96562.72;5039699;28;20060;-25
2021/03/27 00:33:49;;;;;;;5.25;2.00;;;;;;;25.77;28.05;96562.72;5017094;28;20084;-28
2021/03/27 00:36:21;;;;;;;6.13;1.88;;;;;;;25.78;28.17;96563.56;5009304;28;20045;-26
2021/03/27 00:39:19;;;;;;;5.57;1.85;;;;;;;25.78;28.21;96556.50;5000991;28;20033;-26
2021/03/27 00:42:01;;;;;;;6.55;1.83;;;;;;;25.78;27.96;96553.88;5006990;28;20045;-29
2021/03/27 00:44:32;;;;;;;4.78;1.52;;;;;;;25.77;27.90;96546.97;5022762;28;20100;-28
2021/03/27 00:46:59;;;;;;;4.40;1.42;;;;;;;25.77;27.94;96560.09;5001120;28;20501;-27
2021/03/27 00:49:46;;;;;;;5.25;1.50;;;;;;;25.78;27.94;96559.13;5021330;28;20238;-26
2021/03/27 00:52:12;;;;;;;5.38;1.65;;;;;;;25.78;27.93;96559.13;5003314;28;20017;-27
2021/03/27 00:54:42;;;;;;;4.05;1.63;;;;;;;25.79;28.09;96550.34;5018623;28;20037;-24
2021/03/27 00:57:15;;;;;;;4.20;1.88;;;;;;;25.78;28.06;96548.63;5020524;28;20033;-27
2021/03/27 01:00:09;;;;;;;5.55;1.80;;;;;;;25.78;28.13;96545.19;5041163;28;20075;-27
2021/03/27 01:02:35;;;;;;;1.98;1.30;;;;;;;25.78;28.07;96543.38;5018180;28;20517;-28
2021/03/27 01:05:03;;;;;;;4.10;1.42;;;;;;;25.78;28.10;96548.63;4998710;28;20049;-27
2021/03/27 01:07:29;;;;;;;3.22;1.38;;;;;;;25.78;28.11;96540.75;5021760;28;20038;-28
2021/03/27 01:10:00;;;;;;;4.95;1.42;;;;;;;25.79;28.05;96547.72;5036260;28;20084;-26
2021/03/27 01:12:31;;;;;;;4.25;1.90;;;;;;;25.80;28.03;96551.19;5006958;28;20109;-27
2021/03/27 01:15:14;;;;;;;2.53;1.30;;;;;;;25.79;28.05;96549.50;5024659;28;20120;-25
2021/03/27 01:17:42;;;;;;;7.88;1.60;;;;;;;25.78;28.03;96556.50;5019337;28;20037;-26
2021/03/27 01:20:23;;;;;;;7.78;1.52;;;;;;;25.79;28.07;96560.00;5038069;28;20456;-26
2021/03/27 01:22:49;;;;;;;3.03;1.20;;;;;;;25.79;28.02;96560.84;5024459;28;20029;-27
2021/03/27 01:25:19;;;;;;;4.90;1.50;;;;;;;25.78;28.15;96567.00;5014958;28;20048;-24
2021/03/27 01:28:05;;;;;;;2.55;1.23;;;;;;;25.79;28.09;96578.38;5008116;28;20029;-29
2021/03/27 01:30:36;;;;;;;4.75;1.40;;;;;;;25.78;27.95;96579.31;5007241;28;20029;-26
2021/03/27 01:33:16;;;;;;;3.33;1.38;;;;;;;25.78;28.11;96580.13;5006511;28;20529;-27
2021/03/27 01:36:10;;;;;;;1.98;1.20;;;;;;;25.78;28.19;96580.13;5012129;28;20056;-28
2021/03/27 01:39:18;;;;;;;3.20;1.23;;;;;;;25.78;27.98;96580.13;5004495;28;20048;-27
2021/03/27 01:42:16;;;;;;;6.63;1.73;;;;;;;25.79;27.98;96576.59;4993683;28;20117;-28
2021/03/27 01:45:00;;;;;;;2.22;1.15;;;;;;;25.80;28.05;96580.06;5008001;28;20029;-28
2021/03/27 01:47:42;;;;;;;5.15;1.77;;;;;;;25.79;28.05;96589.72;5026359;28;20799;-24
2021/03/27 01:50:14;;;;;;;3.95;1.30;;;;;;;25.78;28.04;96585.38;5028983;28;20561;-24
2021/03/27 01:52:59;;;;;;;;;;;;;;;25.80;28.16;96587.94;5041752;28;20267;-27
2021/03/27 01:55:33;;;;;;;5.45;1.40;;;;;;;25.78;28.01;96585.38;5010794;28;19940;-27
2021/03/27 01:58:03;;;;;;;3.67;1.30;;;;;;;25.78;28.21;96580.13;5040573;28;20073;-27
2021/03/27 02:00:31;;;;;;;2.22;1.17;;;;;;;25.79;28.04;96584.47;4996596;28;20137;-27
2021/03/27 02:03:15;;;;;;;2.40;1.20;;;;;;;25.79;28.31;96597.59;5018541;28;20109;-25
2021/03/27 02:05:55;;;;;;;2.53;1.02;;;;;;;25.78;28.25;96595.88;5006814;28;20026;-26
2021/03/27 02:08:35;;;;;;;3.30;1.25;;;;;;;25.78;28.16;96593.25;5035253;28;20026;-25
2021/03/27 02:11:24;;;;;;;2.75;1.23;;;;;;;25.79;28.28;96602.00;5007183;28;20092;-27
2021/03/27 02:13:55;;;;;;;2.13;1.20;;;;;;;25.78;28.25;96601.13;5034026;28;20021;-27
2021/03/27 02:16:34;;;;;;;2.35;1.00;;;;;;;25.78;28.22;96602.94;5019786;28;20045;-27
2021/03/27 02:19:28;;;;;;;2.80;1.10;;;;;;;25.78;28.34;96597.69;5020269;28;20487;-26
2021/03/27 02:21:58;;;;;;;1.45;0.95;;;;;;;25.78;28.07;96598.50;5040596;28;20033;-29
2021/03/27 02:24:23;;;;;;;5.25;1.20;;;;;;;25.78;28.38;96601.13;5025507;28;20497;-23
2021/03/27 02:26:48;;;;;;;2.97;1.15;;;;;;;25.78;28.26;96609.00;5002428;28;20034;-27
2021/03/27 02:29:29;;;;;;;1.60;1.08;;;;;;;25.79;28.10;96618.59;5009853;28;20148;-25
2021/03/27 02:32:16;;;;;;;3.17;1.13;;;;;;;25.79;28.10;96623.84;5004836;28;20092;-29
2021/03/27 02:34:41;;;;;;;2.13;1.13;;;;;;;25.78;28.22;96622.13;5035379;28;20119;-25
2021/03/27 02:37:08;;;;;;;2.33;1.20;;;;;;;25.78;28.11;96616.88;5004294;28;20029;-28
2021/03/27 02:40:13;;;;;;;3.42;1.60;;;;;;;25.79;28.19;96604.63;5040919;28;20686;-26
2021/03/27 02:42:41;;;;;;;2.20;1.20;;;;;;;25.81;28.27;96584.38;5001511;28;20060;-30
2021/03/27 02:45:13;;;;;;;1.95;1.08;;;;;;;25.79;28.09;96592.34;5006848;28;20025;-28
2021/03/27 02:48:10;;;;;;;1.50;1.17;;;;;;;25.79;28.14;96592.34;5009735;28;20415;-24
2021/03/27 02:50:43;;;;;;;1.33;1.00;;;;;;;25.79;28.27;96597.59;5031793;28;20033;-29
2021/03/27 02:53:39;;;;;;;2.92;1.13;;;;;;;25.79;28.29;96588.88;5033994;28;20067;-24
2021/03/27 02:56:23;;;;;;;2.08;0.90;;;;;;;25.79;28.22;96584.47;5007905;28;20032;-25
2021/03/27 02:58:58;;;;;;;2.45;1.10;;;;;;;25.78;28.23;96574.88;5010347;28;20538;-24
2021/03/27 03:01:41;;;;;;;2.92;0.90;;;;;;;25.78;28.17;96572.25;5030101;28;20028;-23
2021/03/27 03:04:41;;;;;;;2.78;1.00;;;;;;;25.78;28.17;96553.88;5010098;28;20054;-26
2021/03/27 03:07:20;;;;;;;2.40;1.02;;;;;;;25.78;28.37;96556.50;5005864;28;20421;-26
2021/03/27 03:10:08;;;;;;;1.52;1.05;;;;;;;25.78;28.25;96577.50;5021300;28;20033;-30
2021/03/27 03:12:59;;;;;;;1.88;1.00;;;;;;;25.78;28.23;96569.63;5009691;28;20084;-29
2021/03/27 03:15:42;;;;;;;1.30;1.00;;;;;;;25.78;28.09;96572.25;5003384;28;20152;-28
2021/03/27 03:18:15;;;;;;;1.75;0.80;;;;;;;25.79;28.20;96586.25;5033522;28;20114;-23
2021/03/27 03:20:55;;;;;;;1.27;0.90;;;;;;;25.78;28.08;96582.75;5022035;28;20075;-30
2021/03/27 03:23:29;;;;;;;0.90;0.65;;;;;;;25.79;28.31;96599.38;5038782;28;20626;-28
2021/03/27 03:26:12;;;;;;;2.70;1.00;;;;;;;25.79;28.14;96602.84;5007708;28;20030;-29
2021/03/27 03:29:08;;;;;;;2.28;0.90;;;;;;;25.78;28.18;96632.63;5009425;28;20603;-26
2021/03/27 03:31:53;;;;;;;3.55;1.00;;;;;;;25.78;28.15;96716.63;5006369;28;20501;-27
2021/03/27 03:34:22;;;;;;;2.67;1.27;;;;;;;25.77;28.20;96714.94;5017300;28;20820;-27
2021/03/27 03:36:53;;;;;;;3.92;1.50;;;;;;;25.78;28.38;96724.50;5025742;28;20044;-24
2021/03/27 03:39:36;;;;;;;3.70;1.17;;;;;;;25.78;28.53;96731.56;5024479;28;21954;-27
2021/03/27 03:42:04;;;;;;;5.93;1.75;;;;;;;25.78;28.27;96734.16;5035924;28;20032;-28
2021/03/27 03:45:11;;;;;;;4.40;1.30;;;;;;;25.77;28.34;96735.94;5009131;28;20121;-25
2021/03/27 03:48:03;;;;;;;2.15;1.10;;;;;;;25.77;28.33;96738.56;5002407;28;20038;-26
2021/03/27 03:51:03;;;;;;;;;;;;;;;25.75;28.35;96732.56;5032311;28;21788;-27
2021/03/27 03:53:33;;;;;;;2.47;1.17;;;;;;;25.76;28.35;96743.88;4967952;28;20761;-28
2021/03/27 03:56:04;;;;;;;2.70;1.10;;;;;;;25.75;28.24;96747.44;4986838;28;20135;-27
2021/03/27 03:58:33;;;;;;;4.20;0.90;;;;;;;25.75;28.25;96764.06;5011858;28;20022;-26
2021/03/27 04:01:03;;;;;;;4.35;1.27;;;;;;;25.75;28.22;96774.56;5003566;28;20037;-27
2021/03/27 04:03:37;;;;;;;1.70;1.00;;;;;;;25.75;28.29;96773.69;5026450;28;20037;-25
2021/03/27 04:06:04;;;;;;;2.67;0.88;;;;;;;25.74;28.36;96772.00;5009730;28;20084;-29
2021/03/27 04:08:55;;;;;;;1.80;0.90;;;;;;;25.75;28.24;96779.81;5007651;28;20026;-26
2021/03/27 04:11:23;;;;;;;1.48;1.05;;;;;;;25.75;28.31;96779.81;5000752;28;20472;-26
2021/03/27 04:13:51;;;;;;;1.23;0.73;;;;;;;25.75;28.28;96790.31;5007982;28;20052;-25
2021/03/27 04:16:18;;;;;;;2.25;0.95;;;;;;;25.75;28.24;96790.31;5022108;28;20038;-29
2021/03/27 04:18:55;;;;;;;1.77;0.88;;;;;;;25.76;28.24;96797.25;4997820;28;20082;-26
2021/03/27 04:21:24;;;;;;;1.90;0.90;;;;;;;25.77;28.39;96798.94;5032775;28;20032;-27
2021/03/27 04:23:59;;;;;;;1.38;0.80;;;;;;;25.77;28.07;96804.19;5025041;28;20030;-25
2021/03/27 04:26:39;;;;;;;4.35;0.77;;;;;;;25.77;28.33;96808.56;5009178;28;20035;-28
2021/03/27 04:29:23;;;;;;;3.53;0.95;;;;;;;25.77;28.07;96825.19;5042135;28;20092;-26
2021/03/27 04:32:19;;;;;;;2.25;0.77;;;;;;;25.78;28.30;96832.13;5031318;28;20037;-25
2021/03/27 04:34:46;;;;;;;1.85;0.75;;;;;;;25.77;28.30;96840.06;5005865;28;20334;-25
2021/03/27 04:37:38;;;;;;;1.88;0.88;;;;;;;25.76;28.25;96844.50;5029847;28;20033;-27
2021/03/27 04:40:25;;;;;;;3.17;0.90;;;;;;;25.77;28.28;96855.81;5023531;28;20025;-26
2021/03/27 04:43:01;;;;;;;1.38;0.90;;;;;;;25.77;28.37;96856.69;5020539;28;20037;-25
2021/03/27 04:45:45;;;;;;;8.48;0.70;;;;;;;25.75;28.12;96858.56;5007727;28;20022;-25
2021/03/27 04:48:31;;;;;;;1.02;0.63;;;;;;;25.76;28.07;96865.50;5033925;28;20343;-25
2021/03/27 04:51:02;;;;;;;1.48;0.50;;;;;;;25.77;28.07;96874.19;5041560;28;20387;-24
2021/03/27 04:53:47;;;;;;;3.97;0.73;;;;;;;25.76;28.22;96878.63;5009930;28;20123;-27
2021/03/27 04:56:31;;;;;;;3.47;0.60;;;;;;;25.75;28.06;96897.06;5039055;28;20059;-26
2021/03/27 04:59:04;;;;;;;2.30;0.70;;;;;;;25.76;28.16;96907.50;5025790;28;20597;-26
2021/03/27 05:01:48;;;;;;;0.95;0.55;;;;;;;25.76;28.16;96922.38;5002554;28;20050;-28
2021/03/27 05:04:40;;;;;;;2.58;0.68;;;;;;;25.76;28.29;96922.38;5010996;28;20040;-26
2021/03/27 05:07:16;;;;;;;0.98;0.70;;;;;;;25.75;28.25;96932.06;5039098;28;20026;-28
2021/03/27 05:10:03;;;;;;;1.85;0.60;;;;;;;25.76;28.04;96938.13;5021523;28;20041;-26
2021/03/27 05:12:56;;;;;;;2.28;0.80;;;;;;;25.74;28.17;96938.19;5007982;28;20037;-26
2021/03/27 05:15:49;;;;;;;1.33;0.57;;;;;;;25.74;28.06;96951.31;5011757;28;20095;-25
2021/03/27 05:18:14;;;;;;;1.88;0.60;;;;;;;25.74;28.03;96959.19;5007491;28;20056;-23
2021/03/27 05:20:40;;;;;;;1.65;0.55;;;;;;;25.73;28.02;96967.19;5006563;28;20065;-25
2021/03/27 05:23:42;;;;;;;2.83;0.63;;;;;;;25.73;27.90;96975.88;5016786;28;20272;-26
2021/03/27 05:26:18;;;;;;;1.65;0.50;;;;;;;25.72;27.92;96982.06;4996624;28;20088;-25
2021/03/27 05:29:00;;;;;;;1.73;0.50;;;;;;;25.73;28.02;96989.00;5036378;28;20634;-27
2021/03/27 05:32:01;;;;;;;2.28;0.85;;;;;;;25.73;27.96;96991.63;5026302;28;20030;-25
2021/03/27 05:34:38;;;;;;;4.72;0.52;;;;;;;25.72;27.86;97003.06;5006210;28;20043;-24
2021/03/27 05:37:41;;;;;;;1.77;0.52;;;;;;;25.72;27.77;97020.56;5014320;28;20033;-28
2021/03/27 05:40:25;;;;;;;4.28;0.40;;;;;;;25.72;27.78;97031.94;5035866;28;20029;-28
2021/03/27 05:43:12;;;;;;;7.28;0.80;;;;;;;25.70;27.75;97033.78;5004894;28;20037;-27
2021/03/27 05:45:58;;;;;;;2.03;0.77;;;;;;;25.70;27.88;97039.03;5006764;28;20057;-27
2021/03/27 05:48:29;;;;;;;1.85;0.70;;;;;;;25.70;27.78;97052.13;5008067;28;20568;-27
2021/03/27 05:51:01;;;;;;;1.50;0.50;;;;;;;25.69;27.77;97059.19;5007732;28;20030;-26
2021/03/27 05:53:51;;;;;;;5.18;0.63;;;;;;;25.69;27.89;97080.19;5010850;28;20057;-26
2021/03/27 05:56:55;;;;;;;2.00;0.70;;;;;;;25.70;27.59;97091.50;5006769;28;20031;-28
2021/03/27 05:59:54;;;;;;;1.75;0.60;;;;;;;25.69;27.76;97089.81;5030505;28;20037;-29
2021/03/27 06:02:47;;;;;;;2.50;0.80;;;;;;;25.70;27.60;97096.75;5003101;28;20531;-28
2021/03/27 06:05:30;;;;;;;0.82;0.52;;;;;;;25.70;27.80;97096.75;5004671;28;20040;-28
2021/03/27 06:08:13;;;;;;;0.80;0.35;;;;;;;25.69;27.69;97100.31;5011428;28;20105;-25
2021/03/27 06:10:44;;;;;;;3.10;0.57;;;;;;;25.70;27.75;97104.63;5007867;28;20251;-26
2021/03/27 06:13:20;;;;;;;3.30;0.52;;;;;;;25.70;27.82;97110.75;5009038;28;20421;-26
2021/03/27 06:16:08;;;;;;;0.63;0.47;;;;;;;25.70;27.59;97112.50;5019621;28;20038;-25
2021/03/27 06:19:01;;;;;;;1.75;0.60;;;;;;;25.72;27.77;97120.31;5001315;28;21411;-27
2021/03/27 06:21:52;;;;;;;1.77;0.80;;;;;;;25.71;27.65;97114.25;4995736;28;20826;-27
2021/03/27 06:24:40;;;;;;;3.33;0.60;;;;;;;25.72;27.68;97123.81;5030980;28;20029;-29
2021/03/27 06:27:07;;;;;;;1.42;0.38;;;;;;;25.72;27.63;97128.19;5005729;28;20037;-26
2021/03/27 06:29:49;;;;;;;3.42;0.50;;;;;;;25.70;27.54;97133.50;5039547;28;20041;-23
2021/03/27 06:32:27;;;;;;;2.90;0.50;;;;;;;25.70;27.72;97136.13;5037279;28;20029;-22
2021/03/27 06:35:14;;;;;;;0.45;0.38;;;;;;;25.71;27.63;97135.22;5020021;28;20101;-26
2021/03/27 06:37:39;;;;;;;1.35;0.40;;;;;;;25.72;27.49;97151.81;5033840;28;20041;-27
2021/03/27 06:40:37;;;;;;;1.08;0.47;;;;;;;25.70;27.56;97154.50;5000713;28;20030;-28
2021/03/27 06:43:45;;;;;;;2.70;0.63;;;;;;;25.71;27.49;97161.47;5019506;28;20931;-23
2021/03/27 06:46:32;;;;;;;2.83;0.43;;;;;;;25.70;27.75;97167.63;4999852;28;20045;-25
2021/03/27 06:49:16;;;;;;;0.82;0.40;;;;;;;25.71;27.66;97174.59;5029669;28;20076;-27
2021/03/27 06:52:18;;;;;;;2.38;0.30;;;;;;;25.70;27.46;97175.50;5012413;28;20030;-27
2021/03/27 06:55:21;;;;;;;0.38;0.38;;;;;;;25.70;27.55;97175.50;5002538;28;20132;-27
2021/03/27 06:58:11;;;;;;;1.90;0.38;;;;;;;25.71;27.63;97182.47;5006958;28;20030;-25
2021/03/27 07:01:05;;;;;;;0.70;0.40;;;;;;;25.70;27.48;97186.88;5009896;28;20168;-27
2021/03/27 07:03:48;;;;;;;2.80;0.55;;;;;;;25.70;27.69;97180.75;5007746;28;20108;-28
2021/03/27 07:06:31;;;;;;;1.48;0.63;;;;;;;25.70;27.48;97191.25;5005947;28;20080;-27
2021/03/27 07:09:18;;;;;;;2.40;0.40;;;;;;;25.70;27.64;97196.50;5004727;28;20048;-26
2021/03/27 07:12:21;;;;;;;0.65;0.45;;;;;;;25.71;27.49;97200.84;5038010;28;20033;-26
2021/03/27 07:15:10;;;;;;;4.13;0.47;;;;;;;25.70;27.49;97196.50;5009319;28;20131;-27
2021/03/27 07:17:38;;;;;;;6.10;0.63;;;;;;;25.70;27.48;97201.75;5015412;28;20491;-27
2021/03/27 07:20:22;;;;;;;3.13;0.32;;;;;;;25.69;27.46;97189.56;5042780;28;20077;-26
2021/03/27 07:23:05;;;;;;;1.75;0.40;;;;;;;25.68;27.65;97188.72;5002982;28;20045;-25
2021/03/27 07:26:13;;;;;;;2.30;0.40;;;;;;;25.69;27.35;97186.94;5035291;28;20489;-24
2021/03/27 07:28:56;;;;;;;1.33;0.70;;;;;;;25.68;27.34;97187.88;4990785;28;20039;-27
2021/03/27 07:31:32;;;;;;;2.30;0.20;;;;;;;25.67;27.38;97201.91;4973290;28;20034;-26
2021/03/27 07:34:23;;;;;;;4.25;0.57;;;;;;;25.68;27.47;97199.22;4995440;28;20037;-26
2021/03/27 07:37:04;;;;;;;2.10;0.43;;;;;;;25.68;27.25;97209.72;5001625;28;20253;-23
2021/03/27 07:39:41;;;;;;;5.70;0.88;;;;;;;25.69;27.21;97215.81;5036692;28;20105;-27
2021/03/27 07:42:25;;;;;;;6.82;1.00;;;;;;;25.68;26.93;97220.22;5009657;28;20544;-27
2021/03/27 07:45:15;;;;;;;16.60;1.33;;;;;;;25.68;26.66;97220.22;5006378;28;21338;-25
2021/03/27 07:47:50;;;;;;;3.75;0.73;;;;;;;25.69;26.69;97223.69;5006016;28;20037;-26
2021/03/27 07:50:35;;;;;;;8.88;0.80;;;;;;;25.69;26.79;97227.16;5003323;28;20559;-26
2021/03/27 07:53:03;;;;;;;8.43;0.60;;;;;;;25.72;27.01;97220.94;5002115;28;20025;-26
2021/03/27 07:55:44;;;;;;;3.72;0.43;;;;;;;25.74;26.84;97234.81;5036451;28;20042;-27
2021/03/27 07:58:23;;;;;;;25.95;1.80;;;;;;;25.74;26.99;97224.31;5005925;28;20664;-26
2021/03/27 08:00:56;;;;;;;16.08;1.52;;;;;;;25.76;27.03;97238.25;5034781;28;20021;-26
2021/03/27 08:03:40;;;;;;;29.25;2.10;;;;;;;25.76;26.65;97227.75;5003325;28;20065;-26
2021/03/27 08:06:09;;;;;;;10.27;1.30;;;;;;;25.76;26.38;97233.00;5036911;28;20040;-26
2021/03/27 08:08:50;;;;;;;10.10;1.05;;;;;;;25.72;26.20;97228.81;5003371;28;20025;-25
2021/03/27 08:11:23;;;;;;;6.38;1.23;;;;;;;25.68;26.01;97240.34;5032934;28;20036;-24
2021/03/27 08:14:26;;;;;;;2.63;0.95;;;;;;;25.63;25.71;97247.59;5031199;28;20049;-23
2021/03/27 08:17:11;;;;;;;5.03;0.88;;;;;;;25.56;25.56;97231.28;5032965;28;20026;-25
2021/03/27 08:20:01;;;;;;;5.35;1.17;;;;;;;25.51;25.23;97252.44;5006549;28;20205;-24
2021/03/27 08:23:04;;;;;;;1.48;0.57;;;;;;;25.45;25.14;97250.91;5005771;28;20276;-29
2021/03/27 08:26:02;;;;;;;4.75;0.80;;;;;;;25.41;24.78;97259.03;5003272;28;20065;-25
2021/03/27 08:28:56;;;;;;;5.07;1.08;;;;;;;25.35;24.72;97281.13;5004823;28;20034;-25
2021/03/27 08:31:39;;;;;;;2.53;0.80;;;;;;;25.31;24.77;97258.56;5037188;28;20077;-25
2021/03/27 08:34:29;;;;;;;4.32;0.80;;;;;;;25.27;24.54;97275.34;5030214;28;20040;-24
2021/03/27 08:37:08;;;;;;;3.10;0.80;;;;;;;25.24;24.49;97278.13;5002442;28;20079;-25
2021/03/27 08:40:21;;;;;;;2.15;0.63;;;;;;;25.21;24.59;97284.34;4994731;28;20025;-28
2021/03/27 08:43:11;;;;;;;2.85;0.70;;;;;;;25.18;24.31;97290.56;5017996;28;20052;-25
2021/03/27 08:46:14;;;;;;;3.92;1.00;;;;;;;25.15;24.13;97285.47;5003491;28;20029;-27
2021/03/27 08:49:07;;;;;;;3.38;0.90;;;;;;;25.13;23.68;97297.78;5003701;28;20540;-26
2021/03/27 08:51:54;;;;;;;3.42;0.70;;;;;;;25.13;24.08;97297.78;5002665;28;20041;-26
2021/03/27 08:54:41;;;;;;;4.57;0.82;;;;;;;25.14;24.49;97303.88;5031472;28;20086;-28
2021/03/27 08:57:44;;;;;;;6.68;0.80;;;;;;;25.17;24.66;97293.28;5003520;28;20025;-25
2021/03/27 09:00:28;;;;;;;7.72;1.00;;;;;;;25.19;24.97;97307.16;5001911;28;20018;-26
2021/03/27 09:03:15;;;;;;;5.35;0.80;;;;;;;25.23;25.22;97308.75;5001272;28;20837;-27
2021/03/27 09:06:02;;;;;;;7.32;0.70;;;;;;;25.27;25.34;97315.56;5012314;28;20038;-27
2021/03/27 09:08:33;;;;;;;6.30;0.80;;;;;;;25.31;25.19;97317.13;5010286;28;20034;-26
2021/03/27 09:11:06;;;;;;;8.45;0.90;;;;;;;25.37;25.40;97315.16;5010890;28;20132;-26
2021/03/27 09:14:01;;;;;;;5.68;0.80;;;;;;;25.43;25.45;97314.88;5030312;28;20037;-25
2021/03/27 09:16:36;;;;;;;1.55;0.60;;;;;;;25.49;25.72;97325.13;4994404;28;20049;-24
2021/03/27 09:19:30;;;;;;;3.30;0.65;;;;;;;25.55;25.57;97318.78;5031530;28;20032;-22
2021/03/27 09:22:21;;;;;;;5.90;0.77;;;;;;;25.61;25.74;97322.91;5002794;28;20154;-24
2021/03/27 09:24:56;;;;;;;3.00;0.82;;;;;;;25.67;25.78;97322.66;5006247;28;20045;-26
2021/03/27 09:27:46;;;;;;;5.95;0.93;;;;;;;25.71;26.02;97324.22;5025464;28;20114;-26
2021/03/27 09:30:30;;;;;;;2.33;0.63;;;;;;;25.76;25.99;97326.63;5029247;28;20093;-28
2021/03/27 09:32:58;;;;;;;9.63;1.15;;;;;;;25.79;26.13;97334.38;5025278;28;20036;-25
2021/03/27 09:35:38;;;;;;;3.70;0.60;;;;;;;25.82;26.03;97335.09;5029504;28;20029;-27
2021/03/27 09:38:03;;;;;;;4.68;0.85;;;;;;;25.82;22.61;97344.75;5035459;28;20044;-27
2021/03/27 09:40:33;;;;;;;8.70;1.02;;;;;;;25.71;22.66;97345.22;5022724;28;20103;-24
2021/03/27 09:43:49;;;;;;;4.47;0.60;;;;;;;25.52;21.42;97338.09;5025196;28;20440;-28
2021/03/27 09:46:39;;;;;;;5.05;0.88;;;;;;;25.31;21.00;97348.63;5024805;28;20032;-28
2021/03/27 09:49:18;;;;;;;6.18;1.13;;;;;;;25.15;20.64;97361.53;5026278;28;20025;-26
2021/03/27 09:52:09;;;;;;;3.95;1.10;;;;;;;25.00;20.48;97349.91;5046047;28;20534;-26
2021/03/27 09:54:49;;;;;;;5.00;1.08;;;;;;;24.89;20.91;97346.84;5027996;28;21428;-24
2021/03/27 09:57:14;;;;;;;4.38;1.00;;;;;;;24.82;20.75;97354.06;5026347;28;20492;-26
2021/03/27 09:59:43;;;;;;;2.80;0.93;;;;;;;24.76;20.68;97355.19;5025076;28;20131;-26
2021/03/27 10:02:29;;;;;;;1.38;0.63;;;;;;;24.72;20.51;97374.56;5023212;28;20033;-27
2021/03/27 10:05:19;;;;;;;6.35;1.05;;;;;;;24.67;20.45;97368.63;5029036;28;20033;-26
2021/03/27 10:08:16;;;;;;;7.28;1.17;;;;;;;24.62;20.12;97370.59;5035366;28;20017;-28
2021/03/27 10:10:59;;;;;;;3.58;0.98;;;;;;;24.57;19.79;97367.31;5014969;28;20025;-28
2021/03/27 10:13:49;;;;;;;12.30;1.10;;;;;;;24.55;20.12;97369.13;5031394;28;20557;-29
2021/03/27 10:16:24;;;;;;;3.55;1.17;;;;;;;24.48;19.81;97364.13;5027871;28;20037;-26
2021/03/27 10:18:54;;;;;;;4.35;1.00;;;;;;;24.48;20.14;97369.34;5028000;28;20017;-27
2021/03/27 10:21:41;;;;;;;5.32;1.20;;;;;;;24.44;19.32;97380.88;5014934;28;20038;-27
2021/03/27 10:24:31;;;;;;;2.92;0.80;;;;;;;24.39;19.33;97373.19;5031349;28;20525;-27
2021/03/27 10:27:22;;;;;;;6.50;1.27;;;;;;;24.34;19.10;97371.66;5026196;28;20044;-26
2021/03/27 10:30:04;;;;;;;2.90;0.95;;;;;;;24.29;19.19;97379.69;5025087;28;20025;-27
2021/03/27 10:32:29;;;;;;;;;;;;;;;24.24;19.28;97379.88;5028130;28;20456;-26
2021/03/27 10:35:09;;;;;;;5.55;0.90;;;;;;;24.21;19.04;97377.34;5028741;28;19917;-27
2021/03/27 10:37:41;;;;;;;2.67;0.65;;;;;;;24.17;18.93;97396.72;5031682;28;20028;-24
2021/03/27 10:40:31;;;;;;;1.60;0.80;;;;;;;24.11;19.00;97397.78;5030460;28;20032;-27
2021/03/27 10:43:26;;;;;;;2.33;0.88;;;;;;;24.08;18.78;97392.66;5030348;28;20044;-26
2021/03/27 10:46:07;;;;;;;4.00;1.10;;;;;;;24.09;19.37;97403.94;5028218;28;20025;-25
2021/03/27 10:48:35;;;;;;;4.07;1.02;;;;;;;24.13;19.65;97406.44;5028872;28;20120;-26
2021/03/27 10:51:32;;;;;;;3.35;1.10;;;;;;;24.19;19.76;97402.75;5030629;28;20067;-23
2021/03/27 10:54:31;;;;;;;3.28;0.98;;;;;;;24.27;20.11;97413.81;5029188;28;20124;-23
2021/03/27 10:57:21;;;;;;;8.23;1.27;;;;;;;24.35;20.20;97412.66;5024030;28;20025;-24
2021/03/27 10:59:47;;;;;;;5.50;1.00;;;;;;;24.42;20.21;97416.75;5025730;28;20740;-26
2021/03/27 11:02:44;;;;;;;5.97;1.08;;;;;;;24.48;20.55;97402.59;5028270;28;20107;-25
2021/03/27 11:05:29;;;;;;;9.55;1.48;;;;;;;24.57;20.79;97415.34;4988964;28;20037;-24
2021/03/27 11:08:23;;;;;;;19.77;2.60;;;;;;;24.64;20.63;97416.78;5023662;28;20107;-24
2021/03/27 11:11:00;;;;;;;21.38;2.28;;;;;;;24.72;21.09;97410.41;5029547;28;20471;-29
2021/03/27 11:13:57;;;;;;;25.92;3.03;;;;;;;24.75;21.16;97398.03;5039432;28;20035;-29
2021/03/27 11:16:29;;;;;;;13.82;2.85;;;;;;;24.86;21.30;97409.91;5021452;28;20029;-27
2021/03/27 11:19:28;;;;;;;21.02;2.80;;;;;;;24.92;21.53;97414.91;5034568;28;20582;-27
2021/03/27 11:22:21;;;;;;;21.85;2.88;;;;;;;24.98;21.67;97419.88;5033620;28;20049;-26
2021/03/27 11:25:04;;;;;;;19.20;2.35;;;;;;;25.04;21.67;97414.41;5029449;28;20032;-25
2021/03/27 11:27:47;;;;;;;15.70;2.03;;;;;;;25.09;21.85;97401.09;5032478;28;20036;-25
2021/03/27 11:30:47;;;;;;;11.98;2.45;;;;;;;25.14;21.89;97403.53;5032718;28;20029;-26
2021/03/27 11:33:38;;;;;;;10.43;2.05;;;;;;;25.19;22.11;97391.09;5032607;28;20052;-27
2021/03/27 11:36:15;;;;;;;11.00;2.53;;;;;;;25.23;22.14;97397.91;5032710;28;20051;-26
2021/03/27 11:38:45;;;;;;;8.85;2.10;;;;;;;25.27;22.24;97404.75;5031226;28;20094;-30
2021/03/27 11:41:18;;;;;;;12.93;2.38;;;;;;;25.30;22.25;97414.25;5031185;28;20029;-26
2021/03/27 11:43:45;;;;;;;12.77;2.08;;;;;;;25.34;22.40;97399.22;5031812;28;20067;-26
2021/03/27 11:46:21;;;;;;;10.93;2.20;;;;;;;25.36;22.19;97414.00;5038660;28;20927;-27
2021/03/27 11:48:54;;;;;;;12.25;2.40;;;;;;;25.39;22.40;97415.63;5034349;28;20033;-26
2021/03/27 11:51:41;;;;;;;6.35;1.95;;;;;;;25.42;22.62;97407.66;5032368;28;20064;-27
2021/03/27 11:54:25;;;;;;;7.28;2.13;;;;;;;25.46;22.63;97403.97;5031464;28;20025;-27
2021/03/27 11:57:02;;;;;;;11.00;2.80;;;;;;;25.47;22.61;97416.16;5033937;28;20890;-26
2021/03/27 12:02:35;;;;;;;10.30;2.70;;;;;;;25.50;22.78;97416.06;5028635;28;20044;-27
2021/03/27 12:05:17;;;;;;;9.18;2.15;;;;;;;25.51;23.07;97403.78;5031848;28;20033;-25
2021/03/27 12:08:11;;;;;;;6.38;1.80;;;;;;;25.52;22.99;97403.69;5033924;28;20276;-26
2021/03/27 12:11:11;;;;;;;8.02;2.05;;;;;;;25.53;23.12;97394.94;5029682;28;20037;-26
2021/03/27 12:13:56;;;;;;;10.00;1.90;;;;;;;25.56;23.04;97389.56;5033021;28;20035;-28
2021/03/27 12:16:36;;;;;;;6.78;1.98;;;;;;;25.57;22.99;97403.56;5022738;28;20041;-26
2021/03/27 12:19:12;;;;;;;9.73;1.67;;;;;;;25.57;23.16;97404.41;5014079;28;20025;-25
2021/03/27 12:21:57;;;;;;;6.60;1.70;;;;;;;25.60;23.26;97399.94;5029907;28;20024;-25
2021/03/27 12:24:40;;;;;;;6.72;1.92;;;;;;;25.60;23.19;97399.94;5034852;28;20025;-27
2021/03/27 12:27:21;;;;;;;5.47;1.90;;;;;;;25.61;23.57;97404.25;5031863;28;20532;-25
2021/03/27 12:29:47;;;;;;;5.55;1.83;;;;;;;25.62;23.45;97408.63;5034283;28;20504;-26
2021/03/27 12:32:41;;;;;;;7.93;1.98;;;;;;;25.62;23.60;97408.63;5029115;28;20477;-29
2021/03/27 12:35:17;;;;;;;9.10;2.10;;;;;;;25.64;23.41;97412.03;5031429;28;20365;-25
2021/03/27 12:38:07;;;;;;;7.40;1.50;;;;;;;25.64;23.78;97409.41;5031336;28;20444;-26
2021/03/27 12:40:33;;;;;;;6.45;1.67;;;;;;;25.65;23.77;97408.47;5037064;28;20131;-26
2021/03/27 12:43:03;;;;;;;3.50;1.10;;;;;;;25.65;23.57;97414.59;5031603;28;20037;-29
2021/03/27 12:45:30;;;;;;;6.82;1.58;;;;;;;25.66;24.11;97415.44;5033875;28;20036;-26
2021/03/27 12:48:01;;;;;;;7.95;1.50;;;;;;;25.67;23.75;97417.97;5018054;28;20028;-27